UUBP

Bryansk Airport

Bryansk, Russian Federation
TAF UUBP 251356Z 2515/2524 24007MPS 9999 BKN033 TEMPO 2515/2524 4000 -SHRA BKN015CB
Issued Valid From Valid To
Apr-25 @ 13:56 UTC
(4 hours ago)
Apr-25 @ 15:00 UTC
(3 hours ago)
Apr-26 @ 00:00 UTC
(in 6 hours)
Apr-25 @ 15:00 to Apr-26 @ 00:00
TAF UUBP 251356Z 2515/2524 24007MPS 9999 BKN033
Wind Visibility Clouds
240° at 14 knots 10,000+ meters
  • Broken at 3,300' AGL
Temporary Apr-25 @ 15:00 to Apr-26 @ 00:00
TEMPO 2515/2524 4000 -SHRA BKN015CB
Visibility Clouds Conditions
4,007 meters
  • Broken at 1,500' AGL
  • Light Rain
TAF UUBP 251356Z 2515/2524 24007MPS 9999 BKN033 TEMPO 2515/2524 4000 -SHRA BKN015CB
Issued Apr-25 @ 13:56 UTC
(4 hours ago)
Valid From Apr-25 @ 15:00 UTC
(3 hours ago)
Valid To Apr-26 @ 00:00 UTC
(in 6 hours)
Apr-25 @ 15:00 - Apr-26 @ 00:00
Wind Visibility
240° at 14 knots 10,000+ meters
Clouds
  • Broken at 3,300' AGL
Temporary Apr-25 @ 15:00 - Apr-26 @ 00:00
Clouds
  • Broken at 1,500' AGL
Conditions
  • Light Rain